Time;durP1;ratioP1;P1;durP2;ratioP2;P2;SDS_P1;SDS_P2;PMS_P1;PMS_P2;Temp;Humidity;BMP_temperature;BMP_pressure;BME280_temperature;BME280_humidity;BME280_pressure;Samples;Min_cycle;Max_cycle;Signal;HPM_P1;HPM_P2
2024/03/29 00:02:00;;;;;;;10.10;1.20;;;;;;;;;;6186279;23;19997;-93
2024/03/29 00:04:25;;;;;;;4.60;1.02;;;;;;;;;;6186888;23;20040;-94
2024/03/29 00:06:50;;;;;;;6.82;0.93;;;;;;;;;;6185901;23;20005;-93
2024/03/29 00:09:15;;;;;;;2.53;0.63;;;;;;;;;;6185508;23;20428;-93
2024/03/29 00:11:41;;;;;;;2.92;0.47;;;;;;;;;;6185642;23;20039;-93
2024/03/29 00:14:06;;;;;;;2.40;0.75;;;;;;;;;;6185153;23;20051;-93
2024/03/29 00:16:31;;;;;;;1.65;0.60;;;;;;;;;;6185284;23;19997;-93
2024/03/29 00:18:56;;;;;;;2.15;0.75;;;;;;;;;;6186375;23;20029;-94
2024/03/29 00:21:22;;;;;;;4.05;0.95;;;;;;;;;;6184585;23;20340;-93
2024/03/29 00:23:47;;;;;;;8.18;1.00;;;;;;;;;;6183630;23;20032;-93
2024/03/29 00:26:13;;;;;;;5.20;1.05;;;;;;;;;;6184162;23;19997;-92
2024/03/29 00:28:39;;;;;;;3.97;1.00;;;;;;;;;;6184367;23;20196;-93
2024/03/29 00:31:04;;;;;;;3.60;1.08;;;;;;;;;;6184092;23;19993;-92
2024/03/29 00:33:30;;;;;;;8.15;1.23;;;;;;;;;;6183797;23;20084;-92
2024/03/29 00:35:55;;;;;;;3.67;1.08;;;;;;;;;;6185764;23;20000;-93
2024/03/29 00:38:20;;;;;;;5.10;0.80;;;;;;;;;;6183748;23;20438;-94
2024/03/29 00:40:45;;;;;;;3.08;0.75;;;;;;;;;;6184765;23;20001;-94
2024/03/29 00:43:11;;;;;;;6.03;1.05;;;;;;;;;;6183061;23;20072;-92
2024/03/29 00:45:36;;;;;;;6.45;1.05;;;;;;;;;;6184014;23;20059;-93
2024/03/29 00:48:01;;;;;;;8.02;0.95;;;;;;;;;;6183839;23;20036;-92
2024/03/29 00:50:26;;;;;;;7.32;1.00;;;;;;;;;;6184630;23;20007;-93
2024/03/29 00:52:52;;;;;;;4.53;1.43;;;;;;;;;;6183668;23;20300;-93
2024/03/29 00:55:17;;;;;;;2.45;0.70;;;;;;;;;;6183995;23;20290;-93
2024/03/29 00:57:43;;;;;;;1.95;0.90;;;;;;;;;;6182980;23;20036;-93
2024/03/29 01:00:10;;;;;;;4.32;0.88;;;;;;;;;;6183075;23;20005;-90
2024/03/29 01:02:35;;;;;;;3.15;0.63;;;;;;;;;;6183031;23;20076;-94
2024/03/29 01:05:01;;;;;;;3.45;0.82;;;;;;;;;;6183279;23;20044;-92
2024/03/29 01:07:26;;;;;;;4.82;1.13;;;;;;;;;;6182578;23;20079;-92
2024/03/29 01:09:51;;;;;;;8.05;1.10;;;;;;;;;;6183352;23;20486;-91
2024/03/29 01:12:16;;;;;;;7.07;1.10;;;;;;;;;;6182189;23;20331;-92
2024/03/29 01:14:41;;;;;;;9.48;1.35;;;;;;;;;;6183298;23;20300;-92
2024/03/29 01:17:07;;;;;;;4.67;1.00;;;;;;;;;;6183820;23;20029;-92
2024/03/29 01:19:32;;;;;;;4.95;1.38;;;;;;;;;;6184047;23;20552;-92
2024/03/29 01:21:57;;;;;;;5.40;1.30;;;;;;;;;;6184264;23;20367;-91
2024/03/29 01:24:23;;;;;;;10.35;1.40;;;;;;;;;;6184541;23;20044;-91
2024/03/29 01:26:48;;;;;;;9.32;1.50;;;;;;;;;;6184244;23;20255;-92
2024/03/29 01:29:13;;;;;;;8.27;1.90;;;;;;;;;;6183887;23;20063;-93
2024/03/29 01:31:38;;;;;;;11.90;1.55;;;;;;;;;;6183248;23;20028;-92
2024/03/29 01:34:03;;;;;;;14.00;1.47;;;;;;;;;;6184169;23;19997;-91
2024/03/29 01:36:29;;;;;;;5.83;1.47;;;;;;;;;;6184242;23;20279;-92
2024/03/29 01:38:58;;;;;;;4.32;1.17;;;;;;;;;;6184348;23;20231;-92
2024/03/29 01:41:23;;;;;;;13.55;1.90;;;;;;;;;;6182481;23;20004;-91
2024/03/29 01:43:49;;;;;;;14.23;2.05;;;;;;;;;;6182603;23;20005;-91
2024/03/29 01:46:15;;;;;;;8.18;1.48;;;;;;;;;;6181755;23;20001;-92
2024/03/29 01:48:40;;;;;;;14.70;1.60;;;;;;;;;;6182556;23;20558;-91
2024/03/29 01:51:05;;;;;;;7.35;2.08;;;;;;;;;;6182444;23;19998;-91
2024/03/29 01:53:31;;;;;;;16.23;1.98;;;;;;;;;;6183730;23;20020;-92
2024/03/29 01:55:57;;;;;;;10.07;1.45;;;;;;;;;;6183650;23;20071;-91
2024/03/29 01:58:23;;;;;;;6.53;1.50;;;;;;;;;;6184095;23;20024;-90
2024/03/29 02:00:53;;;;;;;14.90;2.85;;;;;;;;;;6181865;23;20632;-90
2024/03/29 02:03:18;;;;;;;7.60;1.60;;;;;;;;;;6183378;23;20005;-91
2024/03/29 02:05:43;;;;;;;6.78;1.98;;;;;;;;;;6183830;23;20356;-91
2024/03/29 02:08:09;;;;;;;8.73;1.60;;;;;;;;;;6157422;23;20004;-90
2024/03/29 02:10:35;;;;;;;10.80;1.80;;;;;;;;;;6183984;23;20026;-90
2024/03/29 02:13:00;;;;;;;10.77;2.30;;;;;;;;;;6183682;23;20017;-93
2024/03/29 02:15:25;;;;;;;8.02;2.63;;;;;;;;;;6157072;23;20379;-91
2024/03/29 02:17:51;;;;;;;7.82;1.67;;;;;;;;;;6183604;23;19997;-91
2024/03/29 02:20:16;;;;;;;6.32;1.40;;;;;;;;;;6183983;23;19998;-90
2024/03/29 02:22:49;;;;;;;5.10;1.10;;;;;;;;;;6157386;23;19993;-91
2024/03/29 02:25:14;;;;;;;5.07;1.23;;;;;;;;;;6182234;23;20001;-90
2024/03/29 02:27:39;;;;;;;6.22;1.58;;;;;;;;;;6183440;23;20372;-90
2024/03/29 02:30:05;;;;;;;5.82;1.25;;;;;;;;;;6156972;23;20001;-90
2024/03/29 02:32:30;;;;;;;5.93;1.25;;;;;;;;;;6183246;23;20004;-91
2024/03/29 02:34:55;;;;;;;6.07;0.90;;;;;;;;;;6183824;23;20008;-90
2024/03/29 02:37:20;;;;;;;6.45;1.20;;;;;;;;;;6157372;23;20213;-90
2024/03/29 02:39:46;;;;;;;7.00;1.30;;;;;;;;;;6183624;23;19997;-91
2024/03/29 02:42:11;;;;;;;10.70;1.40;;;;;;;;;;6157707;23;20227;-90
2024/03/29 02:44:36;;;;;;;5.30;0.87;;;;;;;;;;6157446;23;20546;-90
2024/03/29 02:47:01;;;;;;;7.03;1.23;;;;;;;;;;6183741;23;20717;-90
2024/03/29 02:49:27;;;;;;;7.72;1.38;;;;;;;;;;6157139;23;20380;-89
2024/03/29 02:51:52;;;;;;;9.13;1.17;;;;;;;;;;6183324;23;19997;-90
2024/03/29 02:54:18;;;;;;;10.25;1.17;;;;;;;;;;6157442;23;20226;-90
2024/03/29 02:56:43;;;;;;;6.38;1.23;;;;;;;;;;6184361;23;20364;-90
2024/03/29 02:59:08;;;;;;;6.93;1.10;;;;;;;;;;6183777;23;20000;-89
2024/03/29 03:01:34;;;;;;;11.27;1.73;;;;;;;;;;6156585;23;20231;-90
2024/03/29 03:03:59;;;;;;;5.77;1.20;;;;;;;;;;6183693;23;20001;-91
2024/03/29 03:06:24;;;;;;;5.22;1.20;;;;;;;;;;6183696;23;20219;-90
2024/03/29 03:11:33;;;;;;;7.47;1.20;;;;;;;;;;6185169;23;20008;-90
2024/03/29 03:13:58;;;;;;;10.90;1.40;;;;;;;;;;6185568;23;20004;-90
2024/03/29 03:16:23;;;;;;;12.10;2.23;;;;;;;;;;6159198;23;20554;-89
2024/03/29 03:18:50;;;;;;;5.57;1.20;;;;;;;;;;6158412;23;20523;-90
2024/03/29 03:21:16;;;;;;;5.43;1.00;;;;;;;;;;6185939;23;20005;-91
2024/03/29 03:23:41;;;;;;;10.32;1.38;;;;;;;;;;6185902;23;20328;-90
2024/03/29 03:26:06;;;;;;;6.22;0.88;;;;;;;;;;6159768;23;20029;-92
2024/03/29 03:28:32;;;;;;;4.40;1.02;;;;;;;;;;6186155;23;20008;-90
2024/03/29 03:30:57;;;;;;;10.23;1.58;;;;;;;;;;6186360;23;19997;-90
2024/03/29 03:33:22;;;;;;;8.07;1.10;;;;;;;;;;6185618;23;20020;-90
2024/03/29 03:35:48;;;;;;;7.93;0.88;;;;;;;;;;6159453;23;20262;-90
2024/03/29 03:38:13;;;;;;;9.88;1.08;;;;;;;;;;6185272;23;19997;-90
2024/03/29 03:40:39;;;;;;;5.55;0.52;;;;;;;;;;6185904;23;20012;-90
2024/03/29 03:43:07;;;;;;;6.00;1.52;;;;;;;;;;6185912;23;20022;-90
2024/03/29 03:45:39;;;;;;;3.38;0.73;;;;;;;;;;6186298;23;19997;-90
2024/03/29 03:48:05;;;;;;;6.70;1.25;;;;;;;;;;6185445;23;20001;-90
2024/03/29 03:50:31;;;;;;;6.45;0.82;;;;;;;;;;6184343;23;19997;-89
2024/03/29 03:52:56;;;;;;;17.83;1.20;;;;;;;;;;6185769;23;20012;-89
2024/03/29 03:55:21;;;;;;;6.28;0.55;;;;;;;;;;6186237;23;19997;-89
2024/03/29 03:57:46;;;;;;;4.90;0.88;;;;;;;;;;6185640;23;20000;-89
2024/03/29 04:00:12;;;;;;;12.23;1.03;;;;;;;;;;6185523;23;20087;-90
2024/03/29 04:02:37;;;;;;;8.10;0.88;;;;;;;;;;6185725;23;20247;-89
2024/03/29 04:05:03;;;;;;;6.03;0.70;;;;;;;;;;6185707;23;20412;-90
2024/03/29 04:07:28;;;;;;;13.60;1.00;;;;;;;;;;6185479;23;20448;-89
2024/03/29 04:09:53;;;;;;;2.38;0.82;;;;;;;;;;6184468;23;20417;-89
2024/03/29 04:12:18;;;;;;;9.02;0.85;;;;;;;;;;6185177;23;20031;-90
2024/03/29 04:14:44;;;;;;;8.55;0.80;;;;;;;;;;6185757;23;20332;-89
2024/03/29 04:17:09;;;;;;;4.72;0.85;;;;;;;;;;6184670;23;20001;-92
2024/03/29 04:19:34;;;;;;;8.50;0.60;;;;;;;;;;6185799;23;20027;-91
2024/03/29 04:21:59;;;;;;;6.72;0.75;;;;;;;;;;6184208;23;19997;-92
2024/03/29 04:24:25;;;;;;;5.50;0.80;;;;;;;;;;6185942;23;19997;-92
2024/03/29 04:26:50;;;;;;;3.67;0.60;;;;;;;;;;6185072;23;20547;-91
2024/03/29 04:29:16;;;;;;;6.47;0.52;;;;;;;;;;6185721;23;20578;-91
2024/03/29 04:31:41;;;;;;;1.77;0.50;;;;;;;;;;6183115;23;19997;-91
2024/03/29 04:34:06;;;;;;;7.57;1.20;;;;;;;;;;6183446;23;20075;-91
2024/03/29 04:36:31;;;;;;;3.35;0.80;;;;;;;;;;6184811;23;20101;-91
2024/03/29 04:38:57;;;;;;;5.78;0.70;;;;;;;;;;6184532;23;20001;-90
2024/03/29 04:41:22;;;;;;;8.93;0.73;;;;;;;;;;6182346;23;20084;-91
2024/03/29 04:43:47;;;;;;;6.72;0.73;;;;;;;;;;6183080;23;20310;-91
2024/03/29 04:46:13;;;;;;;13.73;1.20;;;;;;;;;;6183097;23;20008;-92
2024/03/29 04:48:39;;;;;;;6.97;0.60;;;;;;;;;;6184570;23;20519;-92
2024/03/29 04:51:04;;;;;;;2.55;0.40;;;;;;;;;;6184997;23;20360;-91
2024/03/29 04:53:30;;;;;;;10.35;0.82;;;;;;;;;;6184481;23;19996;-91
2024/03/29 04:55:55;;;;;;;5.00;0.68;;;;;;;;;;6182443;23;20052;-92
2024/03/29 04:58:21;;;;;;;7.78;1.10;;;;;;;;;;6183170;23;20328;-92
2024/03/29 05:00:48;;;;;;;6.13;1.25;;;;;;;;;;6184277;23;20059;-92
2024/03/29 05:03:13;;;;;;;5.43;0.98;;;;;;;;;;6182949;23;20008;-91
2024/03/29 05:05:38;;;;;;;4.57;0.80;;;;;;;;;;6182894;23;20005;-92
2024/03/29 05:08:03;;;;;;;8.07;0.90;;;;;;;;;;6184566;23;20314;-91
2024/03/29 05:10:29;;;;;;;4.85;0.70;;;;;;;;;;6183974;23;20309;-92
2024/03/29 05:12:54;;;;;;;12.07;1.08;;;;;;;;;;6184406;23;20427;-92
2024/03/29 05:15:19;;;;;;;10.77;1.40;;;;;;;;;;6182796;23;20340;-92
2024/03/29 05:17:44;;;;;;;16.08;2.60;;;;;;;;;;6182948;23;20005;-91
2024/03/29 05:20:10;;;;;;;8.45;1.10;;;;;;;;;;6184726;23;20008;-91
2024/03/29 05:22:35;;;;;;;12.82;2.58;;;;;;;;;;6182841;23;20011;-92
2024/03/29 05:25:00;;;;;;;13.57;1.65;;;;;;;;;;6182275;23;20001;-91
2024/03/29 05:27:26;;;;;;;16.97;1.57;;;;;;;;;;6182549;23;20305;-92
2024/03/29 05:29:52;;;;;;;19.27;2.30;;;;;;;;;;6184041;23;20621;-92
2024/03/29 05:32:17;;;;;;;17.98;2.83;;;;;;;;;;6182536;23;20127;-91
2024/03/29 05:34:42;;;;;;;14.23;1.40;;;;;;;;;;6184039;23;20416;-91
2024/03/29 05:37:08;;;;;;;20.63;2.28;;;;;;;;;;6157863;23;20466;-92
2024/03/29 05:39:33;;;;;;;19.05;3.65;;;;;;;;;;6183700;23;20324;-92
2024/03/29 05:41:58;;;;;;;10.65;1.85;;;;;;;;;;6183907;23;20000;-92
2024/03/29 05:44:23;;;;;;;14.50;1.53;;;;;;;;;;6184036;23;20016;-91
2024/03/29 05:46:49;;;;;;;19.95;2.45;;;;;;;;;;6184302;23;20218;-91
2024/03/29 05:49:14;;;;;;;14.93;2.83;;;;;;;;;;6184260;23;20009;-91
2024/03/29 05:51:39;;;;;;;17.87;2.47;;;;;;;;;;6184271;23;20026;-91
2024/03/29 05:54:04;;;;;;;22.23;4.20;;;;;;;;;;6181955;23;20278;-91
2024/03/29 05:56:30;;;;;;;33.30;3.53;;;;;;;;;;6184122;23;20001;-90
2024/03/29 05:58:55;;;;;;;18.77;2.33;;;;;;;;;;6183998;23;20416;-90
2024/03/29 06:01:21;;;;;;;22.60;2.28;;;;;;;;;;6182891;23;20047;-91
2024/03/29 06:03:46;;;;;;;24.50;3.42;;;;;;;;;;6183889;23;20032;-91
2024/03/29 06:06:17;;;;;;;25.33;2.92;;;;;;;;;;6183917;23;20546;-91
2024/03/29 06:08:42;;;;;;;18.10;3.75;;;;;;;;;;6183840;23;20008;-91
2024/03/29 06:11:07;;;;;;;29.83;2.95;;;;;;;;;;6184187;23;20475;-91
2024/03/29 06:19:03;;;;;;;25.95;2.63;;;;;;;;;;6184067;23;20085;-92
2024/03/29 06:21:29;;;;;;;22.63;3.53;;;;;;;;;;6183860;23;20366;-92
2024/03/29 06:23:54;;;;;;;27.50;3.10;;;;;;;;;;6157667;23;20547;-92
2024/03/29 06:26:20;;;;;;;23.27;3.30;;;;;;;;;;6157756;23;20450;-93
2024/03/29 06:28:46;;;;;;;31.10;2.78;;;;;;;;;;6157767;23;20262;-92
2024/03/29 06:31:11;;;;;;;22.05;2.88;;;;;;;;;;6158102;23;19993;-92
2024/03/29 06:33:36;;;;;;;29.50;3.47;;;;;;;;;;6184315;23;20004;-93
2024/03/29 06:36:01;;;;;;;15.90;3.67;;;;;;;;;;6184646;23;19997;-94
2024/03/29 06:38:26;;;;;;;13.90;2.53;;;;;;;;;;6184222;23;20215;-93
2024/03/29 06:40:52;;;;;;;24.63;3.33;;;;;;;;;;6158261;23;20001;-93
2024/03/29 06:43:17;;;;;;;28.60;3.95;;;;;;;;;;6158494;23;20235;-93
2024/03/29 06:45:42;;;;;;;21.70;2.33;;;;;;;;;;6159849;23;20436;-94
2024/03/29 06:48:08;;;;;;;16.58;1.85;;;;;;;;;;6159792;23;20052;-94
2024/03/29 06:50:33;;;;;;;22.83;2.38;;;;;;;;;;6185942;23;20084;-94
2024/03/29 06:52:58;;;;;;;19.88;3.10;;;;;;;;;;6161058;23;20442;-92
2024/03/29 06:55:24;;;;;;;17.17;2.60;;;;;;;;;;6159911;23;19997;-93
2024/03/29 06:57:49;;;;;;;14.63;1.90;;;;;;;;;;6160467;23;20210;-92
2024/03/29 07:00:14;;;;;;;12.30;3.63;;;;;;;;;;6187120;23;20227;-93
2024/03/29 07:02:39;;;;;;;13.82;1.90;;;;;;;;;;6185223;23;20233;-93
2024/03/29 07:05:07;;;;;;;12.88;2.53;;;;;;;;;;6185097;23;20428;-93
2024/03/29 07:07:32;;;;;;;16.35;1.60;;;;;;;;;;6185315;23;20088;-93
2024/03/29 07:09:57;;;;;;;13.00;1.50;;;;;;;;;;6185261;23;20040;-92
2024/03/29 07:12:23;;;;;;;13.93;1.48;;;;;;;;;;6185149;23;19997;-93
2024/03/29 07:14:48;;;;;;;12.93;1.50;;;;;;;;;;6184908;23;20004;-93
2024/03/29 07:17:13;;;;;;;14.60;3.53;;;;;;;;;;6185303;23;20218;-92
2024/03/29 07:19:38;;;;;;;16.17;1.73;;;;;;;;;;6185047;23;20227;-92
2024/03/29 07:22:04;;;;;;;16.05;2.90;;;;;;;;;;6185297;23;20724;-93
2024/03/29 07:24:29;;;;;;;11.85;1.30;;;;;;;;;;6185020;23;20084;-93
2024/03/29 07:26:54;;;;;;;6.77;0.87;;;;;;;;;;6185144;23;20012;-94
2024/03/29 07:29:19;;;;;;;10.75;1.15;;;;;;;;;;6184940;23;20258;-92
2024/03/29 07:31:44;;;;;;;14.85;1.40;;;;;;;;;;6185849;23;20001;-93
2024/03/29 07:34:10;;;;;;;12.18;1.38;;;;;;;;;;6184763;23;20001;-92
2024/03/29 07:36:36;;;;;;;11.05;1.15;;;;;;;;;;6186154;23;20298;-93
2024/03/29 07:39:01;;;;;;;11.43;1.02;;;;;;;;;;6186405;23;20088;-93
2024/03/29 07:41:27;;;;;;;8.20;2.08;;;;;;;;;;6186251;23;20004;-93
2024/03/29 07:43:54;;;;;;;8.95;1.23;;;;;;;;;;6185958;23;20001;-92
2024/03/29 07:46:21;;;;;;;12.18;1.13;;;;;;;;;;6184526;23;19997;-91
2024/03/29 07:48:46;;;;;;;9.88;1.77;;;;;;;;;;6184649;23;20035;-93
2024/03/29 07:51:12;;;;;;;10.32;1.42;;;;;;;;;;6185056;23;20424;-94
2024/03/29 07:53:37;;;;;;;10.90;1.40;;;;;;;;;;6185804;23;20820;-92
2024/03/29 07:56:02;;;;;;;16.93;1.63;;;;;;;;;;6186461;23;20663;-93
2024/03/29 07:58:27;;;;;;;8.30;1.52;;;;;;;;;;6186305;23;20749;-93
2024/03/29 08:00:53;;;;;;;7.30;0.90;;;;;;;;;;6183873;23;20009;-93
2024/03/29 08:03:18;;;;;;;10.07;1.00;;;;;;;;;;6158814;23;20222;-91
2024/03/29 08:05:53;;;;;;;6.72;0.95;;;;;;;;;;6159426;23;20005;-93
2024/03/29 08:08:19;;;;;;;5.82;0.98;;;;;;;;;;6183773;23;20009;-92
2024/03/29 08:10:44;;;;;;;12.30;1.48;;;;;;;;;;6185357;23;20039;-91
2024/03/29 08:13:09;;;;;;;4.70;0.80;;;;;;;;;;6184321;23;20275;-92
2024/03/29 08:15:35;;;;;;;5.00;0.93;;;;;;;;;;6158954;23;20250;-93
2024/03/29 08:18:00;;;;;;;9.38;0.90;;;;;;;;;;6159015;23;20001;-93
2024/03/29 08:20:29;;;;;;;11.18;1.50;;;;;;;;;;6185138;23;20435;-92
2024/03/29 08:22:55;;;;;;;7.63;1.05;;;;;;;;;;6184934;23;20081;-93
2024/03/29 08:25:20;;;;;;;10.45;2.15;;;;;;;;;;6158996;23;20001;-93
2024/03/29 08:27:46;;;;;;;8.67;1.10;;;;;;;;;;6184880;23;19993;-93
2024/03/29 08:30:12;;;;;;;7.15;1.00;;;;;;;;;;6185942;23;20578;-92
2024/03/29 08:32:37;;;;;;;7.88;1.15;;;;;;;;;;6184797;23;19996;-93
2024/03/29 08:35:03;;;;;;;10.68;1.98;;;;;;;;;;6156482;23;20005;-93
2024/03/29 08:37:28;;;;;;;10.38;1.50;;;;;;;;;;6184430;23;20072;-93
2024/03/29 08:39:53;;;;;;;7.57;1.38;;;;;;;;;;6184345;23;20420;-93
2024/03/29 08:42:18;;;;;;;12.07;1.83;;;;;;;;;;6184627;23;20001;-93
2024/03/29 08:44:44;;;;;;;6.03;1.17;;;;;;;;;;6184684;23;20223;-92
2024/03/29 08:47:10;;;;;;;7.55;1.20;;;;;;;;;;6184957;23;20215;-91
2024/03/29 08:49:35;;;;;;;8.02;1.00;;;;;;;;;;6155975;23;20320;-90
2024/03/29 08:52:04;;;;;;;18.98;2.35;;;;;;;;;;6182527;23;19997;-92
2024/03/29 08:54:30;;;;;;;14.23;1.80;;;;;;;;;;6184070;23;20083;-92
2024/03/29 08:56:55;;;;;;;12.97;2.50;;;;;;;;;;6157973;23;19997;-91
2024/03/29 08:59:21;;;;;;;13.93;2.55;;;;;;;;;;6184312;23;20278;-91
2024/03/29 09:01:48;;;;;;;8.93;1.53;;;;;;;;;;6183726;23;20091;-90
2024/03/29 09:04:15;;;;;;;15.20;2.35;;;;;;;;;;6182172;23;20227;-90
2024/03/29 09:06:40;;;;;;;10.18;2.03;;;;;;;;;;6184115;23;20050;-91
2024/03/29 09:09:06;;;;;;;12.40;2.47;;;;;;;;;;6184317;23;20111;-93
2024/03/29 09:11:31;;;;;;;10.77;1.60;;;;;;;;;;6185189;23;20000;-91
2024/03/29 09:13:58;;;;;;;12.95;2.03;;;;;;;;;;6184439;23;20004;-95
2024/03/29 09:16:23;;;;;;;7.38;1.30;;;;;;;;;;6181360;23;20005;-94
2024/03/29 09:18:49;;;;;;;15.55;2.05;;;;;;;;;;6183443;23;20416;-91
2024/03/29 09:21:14;;;;;;;12.67;2.37;;;;;;;;;;6184669;23;20015;-94
2024/03/29 09:23:41;;;;;;;14.23;2.67;;;;;;;;;;6182826;23;20546;-90
2024/03/29 09:26:07;;;;;;;16.92;2.65;;;;;;;;;;6182013;23;20009;-95
2024/03/29 09:28:34;;;;;;;18.88;2.55;;;;;;;;;;6183542;23;20009;-91
2024/03/29 09:30:59;;;;;;;11.43;1.67;;;;;;;;;;6182458;23;20355;-91
2024/03/29 09:33:24;;;;;;;15.10;2.80;;;;;;;;;;6181716;23;20005;-90
2024/03/29 09:35:50;;;;;;;16.23;3.38;;;;;;;;;;6184786;23;20001;-91
2024/03/29 09:38:15;;;;;;;11.80;2.30;;;;;;;;;;6183883;23;20070;-90
2024/03/29 09:40:41;;;;;;;10.80;1.40;;;;;;;;;;6183339;23;20360;-90
2024/03/29 09:43:06;;;;;;;9.80;1.35;;;;;;;;;;6183334;23;20586;-90
2024/03/29 09:45:35;;;;;;;10.98;1.33;;;;;;;;;;6182253;23;20381;-90
2024/03/29 09:48:04;;;;;;;20.00;2.45;;;;;;;;;;6183166;23;20009;-93
2024/03/29 09:50:30;;;;;;;10.68;1.27;;;;;;;;;;6185016;23;20016;-93
2024/03/29 09:52:55;;;;;;;11.52;1.55;;;;;;;;;;6183852;23;20429;-90
2024/03/29 09:55:21;;;;;;;10.38;1.98;;;;;;;;;;6183323;23;20336;-90
2024/03/29 09:57:46;;;;;;;8.48;1.80;;;;;;;;;;6183345;23;19997;-90
2024/03/29 10:00:12;;;;;;;7.63;1.15;;;;;;;;;;6184056;23;20431;-91
2024/03/29 10:02:38;;;;;;;7.93;0.95;;;;;;;;;;6184109;23;19997;-90
2024/03/29 10:05:06;;;;;;;9.10;1.25;;;;;;;;;;6183699;23;20004;-90
2024/03/29 10:07:34;;;;;;;5.53;0.98;;;;;;;;;;6182600;23;19997;-90
2024/03/29 10:10:00;;;;;;;10.40;2.15;;;;;;;;;;6181570;23;20104;-90
2024/03/29 10:12:27;;;;;;;9.07;1.10;;;;;;;;;;6182181;23;20033;-91
2024/03/29 10:14:54;;;;;;;11.63;1.55;;;;;;;;;;6183716;23;20021;-89
2024/03/29 10:17:20;;;;;;;7.28;2.15;;;;;;;;;;6183446;23;19997;-90
2024/03/29 10:19:46;;;;;;;8.52;1.02;;;;;;;;;;6182927;23;20079;-90
2024/03/29 10:22:12;;;;;;;17.42;1.92;;;;;;;;;;6183785;23;20320;-89
2024/03/29 10:24:37;;;;;;;12.55;1.33;;;;;;;;;;6183365;23;20003;-90
2024/03/29 10:27:03;;;;;;;8.63;2.13;;;;;;;;;;6181975;23;20379;-88
2024/03/29 10:29:31;;;;;;;7.13;1.10;;;;;;;;;;6183448;23;20756;-90
2024/03/29 10:31:57;;;;;;;6.20;1.08;;;;;;;;;;6184096;23;20052;-88
2024/03/29 10:34:24;;;;;;;10.73;1.60;;;;;;;;;;6182757;23;20424;-90
2024/03/29 10:36:50;;;;;;;9.80;2.00;;;;;;;;;;6183152;23;20364;-88
2024/03/29 10:39:16;;;;;;;22.65;2.22;;;;;;;;;;6180823;23;20009;-88
2024/03/29 10:41:41;;;;;;;14.20;1.60;;;;;;;;;;6181927;23;19993;-89
2024/03/29 10:44:11;;;;;;;12.18;1.80;;;;;;;;;;6182660;23;20001;-92
2024/03/29 10:46:38;;;;;;;6.65;1.25;;;;;;;;;;6182935;23;20077;-92
2024/03/29 10:49:03;;;;;;;12.18;1.55;;;;;;;;;;6182733;23;20005;-93
2024/03/29 10:51:28;;;;;;;10.85;1.42;;;;;;;;;;6183806;23;20005;-92
2024/03/29 10:53:55;;;;;;;10.48;1.83;;;;;;;;;;6183981;23;20000;-94
2024/03/29 10:56:22;;;;;;;12.63;1.77;;;;;;;;;;6181754;23;19997;-90
2024/03/29 10:58:50;;;;;;;6.50;1.08;;;;;;;;;;6183692;23;20075;-90
2024/03/29 11:01:15;;;;;;;4.40;0.60;;;;;;;;;;6183082;23;20001;-89
2024/03/29 11:03:44;;;;;;;5.97;0.60;;;;;;;;;;6182557;23;20416;-89
2024/03/29 11:06:12;;;;;;;6.40;0.80;;;;;;;;;;6181718;23;20001;-89
2024/03/29 11:08:39;;;;;;;9.00;0.77;;;;;;;;;;6183134;23;20001;-90
2024/03/29 11:11:05;;;;;;;3.67;0.60;;;;;;;;;;6183427;23;20004;-90
2024/03/29 11:13:30;;;;;;;5.07;0.75;;;;;;;;;;6183312;23;19997;-89
2024/03/29 11:15:56;;;;;;;11.40;1.30;;;;;;;;;;6182866;23;20001;-90
2024/03/29 11:18:21;;;;;;;9.87;1.00;;;;;;;;;;6182437;23;20001;-90
2024/03/29 11:20:50;;;;;;;4.15;0.73;;;;;;;;;;6181634;23;20265;-91
2024/03/29 11:23:16;;;;;;;6.43;1.38;;;;;;;;;;6181772;23;20040;-92
2024/03/29 11:25:43;;;;;;;10.55;1.83;;;;;;;;;;6183600;23;20316;-91
2024/03/29 11:28:09;;;;;;;12.65;1.75;;;;;;;;;;6183810;23;20032;-91
2024/03/29 11:30:41;;;;;;;11.57;1.05;;;;;;;;;;6185031;23;20012;-91
2024/03/29 11:33:07;;;;;;;6.15;1.20;;;;;;;;;;6183217;23;20001;-91
2024/03/29 11:35:33;;;;;;;7.57;1.10;;;;;;;;;;6183908;23;20008;-91
2024/03/29 11:38:01;;;;;;;10.02;1.98;;;;;;;;;;6184257;23;20443;-90
2024/03/29 11:40:30;;;;;;;11.95;2.28;;;;;;;;;;6184940;23;20068;-92
2024/03/29 11:42:55;;;;;;;6.47;0.93;;;;;;;;;;6185389;23;20005;-90
2024/03/29 11:45:21;;;;;;;8.65;0.90;;;;;;;;;;6185132;23;20301;-90
2024/03/29 11:47:47;;;;;;;10.85;1.60;;;;;;;;;;6183797;23;20001;-90
2024/03/29 11:50:13;;;;;;;10.10;1.10;;;;;;;;;;6184309;23;20004;-90
2024/03/29 11:52:39;;;;;;;13.25;1.60;;;;;;;;;;6185453;23;20573;-93
2024/03/29 11:55:04;;;;;;;11.38;1.60;;;;;;;;;;6184036;23;20004;-92
2024/03/29 11:57:30;;;;;;;10.63;2.00;;;;;;;;;;6183803;23;20496;-92
2024/03/29 11:59:56;;;;;;;6.68;1.10;;;;;;;;;;6184132;23;20009;-90
2024/03/29 12:02:21;;;;;;;7.97;1.00;;;;;;;;;;6185010;23;20437;-90
2024/03/29 12:04:46;;;;;;;5.45;1.38;;;;;;;;;;6184897;23;20219;-89
2024/03/29 12:07:12;;;;;;;5.95;1.23;;;;;;;;;;6186047;23;20008;-89
2024/03/29 12:09:37;;;;;;;8.63;1.20;;;;;;;;;;6158493;23;20332;-90
2024/03/29 12:12:09;;;;;;;7.27;1.07;;;;;;;;;;6185320;23;20055;-89
2024/03/29 12:14:37;;;;;;;9.13;1.30;;;;;;;;;;6183420;23;20539;-90
2024/03/29 12:17:08;;;;;;;11.63;1.35;;;;;;;;;;6185055;23;20001;-89
2024/03/29 12:19:36;;;;;;;15.05;2.60;;;;;;;;;;6185066;23;19993;-90
2024/03/29 12:22:02;;;;;;;8.90;1.95;;;;;;;;;;6182309;23;20001;-89
2024/03/29 12:24:27;;;;;;;14.32;1.52;;;;;;;;;;6185109;23;19993;-90
2024/03/29 12:26:52;;;;;;;15.60;2.35;;;;;;;;;;6184593;23;20005;-90
2024/03/29 12:29:18;;;;;;;12.17;1.80;;;;;;;;;;6184695;23;20309;-89
2024/03/29 12:31:43;;;;;;;8.82;1.83;;;;;;;;;;6184837;23;20215;-89
2024/03/29 12:34:08;;;;;;;16.58;2.97;;;;;;;;;;6185055;23;20001;-90
2024/03/29 12:36:33;;;;;;;14.23;1.60;;;;;;;;;;6184330;23;20379;-90
2024/03/29 12:39:02;;;;;;;13.02;1.75;;;;;;;;;;6183357;23;20305;-89
2024/03/29 12:41:28;;;;;;;9.60;1.75;;;;;;;;;;6183488;23;20088;-89
2024/03/29 12:43:54;;;;;;;10.18;2.00;;;;;;;;;;6184501;23;20329;-91
2024/03/29 12:46:19;;;;;;;10.25;1.70;;;;;;;;;;6184919;23;19997;-91
2024/03/29 12:48:44;;;;;;;12.63;1.65;;;;;;;;;;6184469;23;20076;-90
2024/03/29 12:51:11;;;;;;;10.40;1.73;;;;;;;;;;6158080;23;20497;-90
2024/03/29 12:53:37;;;;;;;14.15;2.05;;;;;;;;;;6186278;23;20227;-95
2024/03/29 12:56:03;;;;;;;11.65;1.63;;;;;;;;;;6184768;23;20001;-92
2024/03/29 12:58:28;;;;;;;21.55;3.25;;;;;;;;;;6182789;23;20005;-92
2024/03/29 13:00:54;;;;;;;15.63;2.65;;;;;;;;;;6182090;23;20004;-90
2024/03/29 13:03:19;;;;;;;13.95;2.13;;;;;;;;;;6184737;23;20336;-96
2024/03/29 13:05:44;;;;;;;18.58;2.63;;;;;;;;;;6186525;23;20017;-95
2024/03/29 13:08:11;;;;;;;9.57;1.98;;;;;;;;;;6184063;23;20012;-95
2024/03/29 13:10:39;;;;;;;17.55;3.50;;;;;;;;;;6190019;23;20005;-94
2024/03/29 13:13:05;;;;;;;12.10;1.95;;;;;;;;;;6189030;23;20007;-94
2024/03/29 13:15:32;;;;;;;12.50;2.15;;;;;;;;;;6183957;23;20076;-95
2024/03/29 13:17:58;;;;;;;9.57;1.20;;;;;;;;;;6183965;23;20532;-95
2024/03/29 13:20:24;;;;;;;12.00;1.65;;;;;;;;;;6186476;23;19996;-96
2024/03/29 13:22:58;;;;;;;12.63;1.85;;;;;;;;;;6189313;23;20020;-96
2024/03/29 13:25:24;;;;;;;7.38;2.03;;;;;;;;;;6191932;23;20093;-95
2024/03/29 13:27:56;;;;;;;11.38;1.60;;;;;;;;;;6183435;23;19996;-95
2024/03/29 13:30:22;;;;;;;8.13;1.50;;;;;;;;;;6183700;23;20447;-93
2024/03/29 13:32:48;;;;;;;7.30;1.33;;;;;;;;;;6184187;23;20375;-95
2024/03/29 13:35:17;;;;;;;9.68;1.50;;;;;;;;;;6187115;23;20005;-96
2024/03/29 13:37:48;;;;;;;10.63;1.77;;;;;;;;;;6200919;23;20001;-95
2024/03/29 13:40:13;;;;;;;12.48;1.38;;;;;;;;;;6189554;23;20001;-95
2024/03/29 13:42:39;;;;;;;11.65;2.28;;;;;;;;;;6185051;23;20005;-95
2024/03/29 13:45:11;;;;;;;8.30;1.70;;;;;;;;;;6196865;23;20001;-93
2024/03/29 13:47:36;;;;;;;;;;;;;;;;;;6207168;22;20454;-96
2024/03/29 13:50:01;;;;;;;11.23;3.80;;;;;;;;;;6220923;23;19908;-96
2024/03/29 13:52:27;;;;;;;10.52;1.38;;;;;;;;;;6223953;23;20000;-96
2024/03/29 13:54:53;;;;;;;10.23;1.65;;;;;;;;;;6219103;23;19993;-96
2024/03/29 13:57:19;;;;;;;10.68;1.95;;;;;;;;;;6216748;23;20042;-96
2024/03/29 13:59:44;;;;;;;13.02;1.90;;;;;;;;;;6241488;23;19996;-96
2024/03/29 14:02:14;;;;;;;10.00;2.08;;;;;;;;;;6239553;23;20091;-94
2024/03/29 14:04:40;;;;;;;10.45;1.60;;;;;;;;;;6239004;23;20004;-95
2024/03/29 14:07:08;;;;;;;14.23;2.88;;;;;;;;;;6238851;22;20330;-95
2024/03/29 14:09:34;;;;;;;12.25;2.05;;;;;;;;;;6239398;23;20028;-93
2024/03/29 14:11:59;;;;;;;12.35;1.50;;;;;;;;;;6239603;23;19996;-96
2024/03/29 14:14:25;;;;;;;14.27;2.15;;;;;;;;;;6249839;23;20024;-93
2024/03/29 14:16:50;;;;;;;13.52;2.47;;;;;;;;;;6224560;23;19993;-95
2024/03/29 14:19:15;;;;;;;12.57;1.95;;;;;;;;;;6247137;23;20001;-96
2024/03/29 14:21:41;;;;;;;15.50;2.45;;;;;;;;;;6248706;23;20035;-96
2024/03/29 14:24:06;;;;;;;6.00;1.23;;;;;;;;;;6247706;23;20001;-96
2024/03/29 14:26:31;;;;;;;13.30;2.40;;;;;;;;;;6242139;22;20003;-96
2024/03/29 14:28:56;;;;;;;12.10;2.13;;;;;;;;;;6238912;23;20490;-95
2024/03/29 14:31:22;;;;;;;8.05;1.42;;;;;;;;;;6246057;23;20665;-96
2024/03/29 14:33:47;;;;;;;10.17;1.97;;;;;;;;;;6214232;23;20039;-93
2024/03/29 14:36:12;;;;;;;7.22;1.25;;;;;;;;;;6238332;22;20530;-92